Abiquiu, NM (87510)

11:05 PM MDT on September 02, 2014 (GMT -0600)
Plaza Blanca | Change Station
CLOSE
Current Station
Personal Weather Station
Location: Abiquiu, NM
Elevation: 6154 ft
Nearby Weather Stations

Elev 6154 ft 36.22 °N, 106.28 °W | Updated 30 seconds ago

Clear
Clear
74.0 °F
Feels Like 76 °F
N
1.8
Wind Variable Wind from ESE
Gusts 1.8 mph

Today
High -- | Low -- °F
--% Chance of Precip.
Yesterday
High -- | Low -- °F
Precip. -- in
6:37 AM 7:31 PM
First Quarter, 58% visible
Pressure 30.19 in
Visibility 10.0 miles
Clouds Clear
Heat Index 76 °F
Dew Point 35 °F
Humidity 24%
Rainfall 0.00 in
Snow Depth 1 in
UV 0 out of 12
Pollen 8.70 out of 12
Air Quality Not available.
Flu Activity Not available.
METAR KLAM 030455Z AUTO 23007KT 10SM CLR 23/M03 A3019 RMK AO2 T02291026

More Conditions Fewer Conditions

Pressure 30.19 in
Visibility 10.0 miles
Clouds Clear
Heat Index 76 °F
Dew Point 35 °F
Humidity 24%
Rainfall 0.00 in
Snow Depth 1 in
UV 0 out of 12
Pollen 8.70 out of 12
Air Quality Not available.
Flu Activity Not available.
METAR KLAM 030455Z AUTO 23007KT 10SM CLR 23/M03 A3019 RMK AO2 T02291026

More Conditions Fewer Conditions

10-Day Weather Forecast

Almanac

Astronomy

Sep. 02, 2014 Rise Set
Actual Time 6:37 AM MDT 7:31 PM MDT
Civil Twilight 6:11 AM MDT 7:57 PM MDT
Nautical Twilight 5:40 AM MDT 8:28 PM MDT
Astronomical Twilight 5:08 AM MDT 9:00 PM MDT
Moon 2:11 PM MDT (9/2) No Moon Set
Length of Visible Light 13h 46m
Length of Day
12h 53m
Tomorrow will be 2m 13s shorter.
First Quarter, 58% of the Moon is Illuminated
Sep 3
First Quarter
Sep 8
Full
Sep 15
Last Quarter
Sep 24
New
Oct 1
First Quarter

Yesterday's Extremes

State Highs State Lows

Community

WunderPhotos

Upload Photos

1,749,873 photos uploaded!

Nearby

Snow Depth

Station Depth Elevation
Quemazon 1 in 9500 ft
Bateman 0 in 9300 ft
Senorita Divide #2 0 in 8600 ft
Santa Fe 1 in 11445 ft
Gallegos Peak 0 in 9800 ft

Earthquake Activity

City Distance Mag. Time & Date
Trinidad, Colorado 95 miles 2.7 4:20 AM MDT
2014-08-31
Minimum magnitude displayed is 2.5.

Coastal Water Temperatures

Place Temperature
No Stations Reporting

Nearby Weather Stations